sensor_id;sensor_type;location;lat;lon;timestamp;P1;durP1;ratioP1;P2;durP2;ratioP2
15820;SDS011;8011;51.650;7.240;2022-10-17T03:00:52;8.10;;;6.33;;
15820;SDS011;8011;51.650;7.240;2022-10-17T03:03:18;7.30;;;6.60;;
15820;SDS011;8011;51.650;7.240;2022-10-17T03:05:57;7.60;;;6.70;;
15820;SDS011;8011;51.650;7.240;2022-10-17T03:08:23;7.03;;;6.30;;
15820;SDS011;8011;51.650;7.240;2022-10-17T03:10:49;7.37;;;6.63;;
15820;SDS011;8011;51.650;7.240;2022-10-17T03:13:15;7.10;;;6.20;;
15820;SDS011;8011;51.650;7.240;2022-10-17T03:15:41;6.93;;;6.10;;
15820;SDS011;8011;51.650;7.240;2022-10-17T03:18:07;7.50;;;6.80;;
15820;SDS011;8011;51.650;7.240;2022-10-17T03:20:33;6.67;;;6.07;;
15820;SDS011;8011;51.650;7.240;2022-10-17T03:22:59;8.30;;;6.43;;
15820;SDS011;8011;51.650;7.240;2022-10-17T03:25:24;6.90;;;6.20;;
15820;SDS011;8011;51.650;7.240;2022-10-17T03:27:50;6.30;;;5.70;;
15820;SDS011;8011;51.650;7.240;2022-10-17T03:30:16;7.90;;;5.90;;
15820;SDS011;8011;51.650;7.240;2022-10-17T03:32:43;6.57;;;5.80;;
15820;SDS011;8011;51.650;7.240;2022-10-17T03:35:08;7.13;;;5.73;;
15820;SDS011;8011;51.650;7.240;2022-10-17T03:37:34;7.77;;;6.03;;
15820;SDS011;8011;51.650;7.240;2022-10-17T03:40:00;6.83;;;6.13;;
15820;SDS011;8011;51.650;7.240;2022-10-17T03:42:26;6.50;;;5.90;;
15820;SDS011;8011;51.650;7.240;2022-10-17T03:44:51;6.67;;;5.80;;
15820;SDS011;8011;51.650;7.240;2022-10-17T03:47:17;7.60;;;5.30;;
15820;SDS011;8011;51.650;7.240;2022-10-17T03:49:43;13.47;;;6.60;;
15820;SDS011;8011;51.650;7.240;2022-10-17T03:52:12;8.83;;;6.47;;
15820;SDS011;8011;51.650;7.240;2022-10-17T03:54:38;11.70;;;6.47;;
15820;SDS011;8011;51.650;7.240;2022-10-17T03:57:03;6.90;;;6.20;;
15820;SDS011;8011;51.650;7.240;2022-10-17T03:59:29;7.63;;;6.43;;
15820;SDS011;8011;51.650;7.240;2022-10-17T04:01:55;7.23;;;5.87;;
15820;SDS011;8011;51.650;7.240;2022-10-17T04:04:21;6.53;;;5.80;;
15820;SDS011;8011;51.650;7.240;2022-10-17T04:06:46;6.90;;;5.83;;
15820;SDS011;8011;51.650;7.240;2022-10-17T04:09:12;8.33;;;5.97;;
15820;SDS011;8011;51.650;7.240;2022-10-17T04:11:38;6.80;;;6.10;;
15820;SDS011;8011;51.650;7.240;2022-10-17T04:14:04;7.83;;;6.30;;
15820;SDS011;8011;51.650;7.240;2022-10-17T04:16:30;7.27;;;5.97;;
15820;SDS011;8011;51.650;7.240;2022-10-17T04:18:56;7.77;;;6.07;;
15820;SDS011;8011;51.650;7.240;2022-10-17T04:21:24;6.50;;;5.90;;
15820;SDS011;8011;51.650;7.240;2022-10-17T04:23:54;6.93;;;6.23;;
15820;SDS011;8011;51.650;7.240;2022-10-17T04:26:20;6.97;;;5.60;;
15820;SDS011;8011;51.650;7.240;2022-10-17T04:28:47;7.53;;;5.90;;
15820;SDS011;8011;51.650;7.240;2022-10-17T04:31:12;7.83;;;6.23;;
15820;SDS011;8011;51.650;7.240;2022-10-17T04:33:39;6.83;;;6.13;;
15820;SDS011;8011;51.650;7.240;2022-10-17T04:36:06;8.40;;;6.23;;
15820;SDS011;8011;51.650;7.240;2022-10-17T04:38:36;7.37;;;5.80;;
15820;SDS011;8011;51.650;7.240;2022-10-17T04:41:03;7.30;;;5.83;;
15820;SDS011;8011;51.650;7.240;2022-10-17T04:43:31;10.27;;;5.90;;
15820;SDS011;8011;51.650;7.240;2022-10-17T04:45:59;7.50;;;5.83;;
15820;SDS011;8011;51.650;7.240;2022-10-17T04:48:26;6.40;;;5.70;;
15820;SDS011;8011;51.650;7.240;2022-10-17T04:50:53;7.33;;;6.07;;
15820;SDS011;8011;51.650;7.240;2022-10-17T04:53:27;7.50;;;5.70;;
15820;SDS011;8011;51.650;7.240;2022-10-17T04:55:55;8.13;;;6.17;;
15820;SDS011;8011;51.650;7.240;2022-10-17T04:58:21;6.53;;;5.43;;
15820;SDS011;8011;51.650;7.240;2022-10-17T05:00:47;8.03;;;5.43;;
15820;SDS011;8011;51.650;7.240;2022-10-17T05:03:12;7.93;;;5.70;;
15820;SDS011;8011;51.650;7.240;2022-10-17T05:05:39;5.80;;;5.27;;
15820;SDS011;8011;51.650;7.240;2022-10-17T05:08:06;7.87;;;5.47;;
15820;SDS011;8011;51.650;7.240;2022-10-17T05:10:36;5.53;;;5.03;;
15820;SDS011;8011;51.650;7.240;2022-10-17T05:13:02;5.83;;;5.30;;
15820;SDS011;8011;51.650;7.240;2022-10-17T05:15:28;6.63;;;5.10;;
15820;SDS011;8011;51.650;7.240;2022-10-17T05:17:54;8.23;;;5.43;;
15820;SDS011;8011;51.650;7.240;2022-10-17T05:20:21;6.70;;;5.80;;
15820;SDS011;8011;51.650;7.240;2022-10-17T05:22:47;6.33;;;5.23;;
15820;SDS011;8011;51.650;7.240;2022-10-17T05:25:12;7.73;;;5.40;;
15820;SDS011;8011;51.650;7.240;2022-10-17T05:27:38;6.37;;;5.00;;
15820;SDS011;8011;51.650;7.240;2022-10-17T05:30:04;5.47;;;4.97;;
15820;SDS011;8011;51.650;7.240;2022-10-17T05:32:30;7.23;;;4.97;;
15820;SDS011;8011;51.650;7.240;2022-10-17T05:34:56;6.33;;;5.23;;
15820;SDS011;8011;51.650;7.240;2022-10-17T05:37:21;5.30;;;4.80;;
15820;SDS011;8011;51.650;7.240;2022-10-17T05:39:47;5.23;;;4.80;;
15820;SDS011;8011;51.650;7.240;2022-10-17T05:42:13;7.33;;;5.63;;
15820;SDS011;8011;51.650;7.240;2022-10-17T05:44:39;7.57;;;5.30;;
15820;SDS011;8011;51.650;7.240;2022-10-17T05:47:05;5.90;;;5.30;;
15820;SDS011;8011;51.650;7.240;2022-10-17T05:49:32;6.97;;;4.97;;
15820;SDS011;8011;51.650;7.240;2022-10-17T05:51:58;5.33;;;4.93;;
15820;SDS011;8011;51.650;7.240;2022-10-17T05:54:24;6.13;;;5.20;;
15820;SDS011;8011;51.650;7.240;2022-10-17T05:56:51;6.33;;;4.90;;
15820;SDS011;8011;51.650;7.240;2022-10-17T05:59:17;6.10;;;5.30;;
15820;SDS011;8011;51.650;7.240;2022-10-17T06:01:42;6.53;;;5.47;;
15820;SDS011;8011;51.650;7.240;2022-10-17T06:04:08;6.90;;;5.73;;
15820;SDS011;8011;51.650;7.240;2022-10-17T06:06:37;6.97;;;5.10;;
15820;SDS011;8011;51.650;7.240;2022-10-17T06:09:04;5.53;;;5.03;;
15820;SDS011;8011;51.650;7.240;2022-10-17T06:11:31;6.40;;;4.33;;
15820;SDS011;8011;51.650;7.240;2022-10-17T06:13:58;5.30;;;4.80;;
15820;SDS011;8011;51.650;7.240;2022-10-17T06:16:24;5.40;;;4.90;;
15820;SDS011;8011;51.650;7.240;2022-10-17T06:18:49;6.73;;;4.97;;
15820;SDS011;8011;51.650;7.240;2022-10-17T06:21:16;8.07;;;5.17;;
15820;SDS011;8011;51.650;7.240;2022-10-17T06:23:45;5.27;;;4.60;;
15820;SDS011;8011;51.650;7.240;2022-10-17T06:26:12;5.27;;;4.77;;
15820;SDS011;8011;51.650;7.240;2022-10-17T06:28:37;6.60;;;4.90;;
15820;SDS011;8011;51.650;7.240;2022-10-17T06:31:07;6.07;;;4.93;;
15820;SDS011;8011;51.650;7.240;2022-10-17T06:33:34;7.37;;;4.90;;
15820;SDS011;8011;51.650;7.240;2022-10-17T06:36:00;5.57;;;4.53;;
15820;SDS011;8011;51.650;7.240;2022-10-17T06:38:26;5.33;;;4.83;;
15820;SDS011;8011;51.650;7.240;2022-10-17T06:40:52;6.70;;;5.53;;
15820;SDS011;8011;51.650;7.240;2022-10-17T06:43:18;5.53;;;5.03;;
15820;SDS011;8011;51.650;7.240;2022-10-17T06:45:45;10.03;;;4.93;;
15820;SDS011;8011;51.650;7.240;2022-10-17T06:48:11;6.50;;;5.50;;
15820;SDS011;8011;51.650;7.240;2022-10-17T06:50:37;9.73;;;5.10;;
15820;SDS011;8011;51.650;7.240;2022-10-17T06:53:03;7.43;;;5.53;;
15820;SDS011;8011;51.650;7.240;2022-10-17T06:55:29;6.53;;;4.57;;
15820;SDS011;8011;51.650;7.240;2022-10-17T06:57:55;4.90;;;4.40;;
15820;SDS011;8011;51.650;7.240;2022-10-17T07:00:21;9.00;;;4.73;;
15820;SDS011;8011;51.650;7.240;2022-10-17T07:02:47;5.57;;;4.63;;
15820;SDS011;8011;51.650;7.240;2022-10-17T07:05:14;5.90;;;4.50;;
15820;SDS011;8011;51.650;7.240;2022-10-17T07:07:39;5.60;;;4.37;;
15820;SDS011;8011;51.650;7.240;2022-10-17T07:10:05;5.03;;;4.63;;
15820;SDS011;8011;51.650;7.240;2022-10-17T07:12:34;5.33;;;4.83;;
15820;SDS011;8011;51.650;7.240;2022-10-17T07:15:00;5.67;;;4.30;;
15820;SDS011;8011;51.650;7.240;2022-10-17T07:17:28;4.80;;;4.30;;
15820;SDS011;8011;51.650;7.240;2022-10-17T07:19:54;5.63;;;4.63;;
15820;SDS011;8011;51.650;7.240;2022-10-17T07:22:20;4.63;;;4.23;;
15820;SDS011;8011;51.650;7.240;2022-10-17T07:24:52;5.40;;;4.47;;
15820;SDS011;8011;51.650;7.240;2022-10-17T07:27:22;5.73;;;4.47;;
15820;SDS011;8011;51.650;7.240;2022-10-17T07:29:47;4.77;;;4.00;;
15820;SDS011;8011;51.650;7.240;2022-10-17T07:32:13;5.23;;;4.70;;
15820;SDS011;8011;51.650;7.240;2022-10-17T07:34:39;5.43;;;4.10;;
15820;SDS011;8011;51.650;7.240;2022-10-17T07:37:04;5.93;;;4.20;;
15820;SDS011;8011;51.650;7.240;2022-10-17T07:39:31;5.33;;;4.27;;
15820;SDS011;8011;51.650;7.240;2022-10-17T07:41:56;5.13;;;4.63;;
15820;SDS011;8011;51.650;7.240;2022-10-17T07:44:22;6.07;;;4.70;;
15820;SDS011;8011;51.650;7.240;2022-10-17T07:46:48;6.63;;;4.37;;
15820;SDS011;8011;51.650;7.240;2022-10-17T07:49:14;5.13;;;4.10;;
15820;SDS011;8011;51.650;7.240;2022-10-17T07:51:40;9.33;;;4.53;;
15820;SDS011;8011;51.650;7.240;2022-10-17T07:54:05;6.93;;;4.10;;
15820;SDS011;8011;51.650;7.240;2022-10-17T07:56:31;5.87;;;4.43;;
15820;SDS011;8011;51.650;7.240;2022-10-17T07:58:57;4.70;;;4.30;;
15820;SDS011;8011;51.650;7.240;2022-10-17T08:01:23;5.03;;;4.23;;
15820;SDS011;8011;51.650;7.240;2022-10-17T08:03:49;7.17;;;4.20;;
15820;SDS011;8011;51.650;7.240;2022-10-17T08:06:15;7.80;;;4.40;;
15820;SDS011;8011;51.650;7.240;2022-10-17T08:08:41;4.50;;;4.10;;
15820;SDS011;8011;51.650;7.240;2022-10-17T08:11:08;6.03;;;4.10;;
15820;SDS011;8011;51.650;7.240;2022-10-17T08:13:35;6.90;;;4.10;;
15820;SDS011;8011;51.650;7.240;2022-10-17T08:16:02;8.03;;;4.00;;
15820;SDS011;8011;51.650;7.240;2022-10-17T08:18:31;6.93;;;3.70;;
15820;SDS011;8011;51.650;7.240;2022-10-17T08:21:03;4.93;;;4.03;;
15820;SDS011;8011;51.650;7.240;2022-10-17T08:23:30;6.20;;;4.17;;
15820;SDS011;8011;51.650;7.240;2022-10-17T08:26:00;4.23;;;3.83;;
15820;SDS011;8011;51.650;7.240;2022-10-17T08:28:27;5.63;;;3.80;;
15820;SDS011;8011;51.650;7.240;2022-10-17T08:31:00;7.00;;;4.13;;
15820;SDS011;8011;51.650;7.240;2022-10-17T08:33:26;5.07;;;3.50;;
15820;SDS011;8011;51.650;7.240;2022-10-17T08:35:52;6.37;;;3.60;;
15820;SDS011;8011;51.650;7.240;2022-10-17T08:38:18;7.27;;;3.97;;
15820;SDS011;8011;51.650;7.240;2022-10-17T08:40:43;5.40;;;4.17;;
15820;SDS011;8011;51.650;7.240;2022-10-17T08:45:50;10.20;;;3.70;;
15820;SDS011;8011;51.650;7.240;2022-10-17T08:48:24;5.97;;;4.13;;
15820;SDS011;8011;51.650;7.240;2022-10-17T08:50:57;3.60;;;3.20;;
15820;SDS011;8011;51.650;7.240;2022-10-17T08:53:37;6.70;;;3.63;;
15820;SDS011;8011;51.650;7.240;2022-10-17T08:56:22;8.63;;;3.60;;
15820;SDS011;8011;51.650;7.240;2022-10-17T08:58:50;4.37;;;3.70;;
15820;SDS011;8011;51.650;7.240;2022-10-17T09:01:24;5.00;;;3.30;;
15820;SDS011;8011;51.650;7.240;2022-10-17T09:04:14;5.57;;;3.10;;
15820;SDS011;8011;51.650;7.240;2022-10-17T09:06:51;5.73;;;3.03;;
15820;SDS011;8011;51.650;7.240;2022-10-17T09:09:41;3.37;;;3.07;;
15820;SDS011;8011;51.650;7.240;2022-10-17T09:17:57;3.50;;;2.97;;
15820;SDS011;8011;51.650;7.240;2022-10-17T09:20:35;7.90;;;2.90;;
15820;SDS011;8011;51.650;7.240;2022-10-17T09:23:30;3.07;;;2.60;;
15820;SDS011;8011;51.650;7.240;2022-10-17T09:25:58;4.33;;;2.90;;
15820;SDS011;8011;51.650;7.240;2022-10-17T09:28:30;5.43;;;3.13;;
15820;SDS011;8011;51.650;7.240;2022-10-17T09:33:55;9.07;;;3.47;;
15820;SDS011;8011;51.650;7.240;2022-10-17T09:36:28;3.50;;;2.97;;
15820;SDS011;8011;51.650;7.240;2022-10-17T09:39:02;2.80;;;2.50;;
15820;SDS011;8011;51.650;7.240;2022-10-17T09:41:33;4.23;;;2.67;;
15820;SDS011;8011;51.650;7.240;2022-10-17T09:44:22;3.90;;;3.00;;
15820;SDS011;8011;51.650;7.240;2022-10-17T09:49:28;3.80;;;2.50;;
15820;SDS011;8011;51.650;7.240;2022-10-17T09:51:57;4.43;;;2.70;;
15820;SDS011;8011;51.650;7.240;2022-10-17T09:54:58;5.03;;;2.50;;
15820;SDS011;8011;51.650;7.240;2022-10-17T09:57:19;3.63;;;2.80;;
15820;SDS011;8011;51.650;7.240;2022-10-17T09:59:46;4.10;;;2.53;;
15820;SDS011;8011;51.650;7.240;2022-10-17T10:02:22;5.83;;;3.17;;
15820;SDS011;8011;51.650;7.240;2022-10-17T10:07:40;2.67;;;2.47;;
15820;SDS011;8011;51.650;7.240;2022-10-17T10:10:07;4.27;;;2.30;;
15820;SDS011;8011;51.650;7.240;2022-10-17T10:13:00;3.43;;;2.93;;
15820;SDS011;8011;51.650;7.240;2022-10-17T10:15:39;4.77;;;2.70;;
15820;SDS011;8011;51.650;7.240;2022-10-17T10:18:29;3.13;;;2.50;;
15820;SDS011;8011;51.650;7.240;2022-10-17T10:23:38;7.87;;;2.60;;
15820;SDS011;8011;51.650;7.240;2022-10-17T10:26:24;4.07;;;2.57;;
15820;SDS011;8011;51.650;7.240;2022-10-17T10:29:06;2.53;;;2.33;;
15820;SDS011;8011;51.650;7.240;2022-10-17T10:31:49;4.50;;;3.00;;
15820;SDS011;8011;51.650;7.240;2022-10-17T10:34:31;3.23;;;2.93;;
15820;SDS011;8011;51.650;7.240;2022-10-17T10:37:13;4.97;;;2.80;;
15820;SDS011;8011;51.650;7.240;2022-10-17T10:39:50;3.03;;;2.63;;
15820;SDS011;8011;51.650;7.240;2022-10-17T10:42:21;5.07;;;3.00;;
15820;SDS011;8011;51.650;7.240;2022-10-17T10:45:20;3.27;;;2.70;;
15820;SDS011;8011;51.650;7.240;2022-10-17T10:53:13;5.57;;;3.20;;
15820;SDS011;8011;51.650;7.240;2022-10-17T10:58:51;6.23;;;2.90;;
15820;SDS011;8011;51.650;7.240;2022-10-17T11:01:21;7.17;;;2.80;;
15820;SDS011;8011;51.650;7.240;2022-10-17T11:06:30;4.03;;;2.83;;
15820;SDS011;8011;51.650;7.240;2022-10-17T11:11:51;4.73;;;2.90;;
15820;SDS011;8011;51.650;7.240;2022-10-17T11:14:45;5.40;;;2.83;;
15820;SDS011;8011;51.650;7.240;2022-10-17T11:22:46;4.27;;;2.77;;
15820;SDS011;8011;51.650;7.240;2022-10-17T11:25:57;3.90;;;3.10;;
15820;SDS011;8011;51.650;7.240;2022-10-17T11:28:08;5.40;;;2.70;;
15820;SDS011;8011;51.650;7.240;2022-10-17T11:30:47;4.90;;;2.57;;
15820;SDS011;8011;51.650;7.240;2022-10-17T11:33:21;4.20;;;2.67;;
15820;SDS011;8011;51.650;7.240;2022-10-17T11:35:51;3.60;;;2.60;;
15820;SDS011;8011;51.650;7.240;2022-10-17T11:41:13;4.00;;;2.37;;
15820;SDS011;8011;51.650;7.240;2022-10-17T11:43:51;4.17;;;2.47;;
15820;SDS011;8011;51.650;7.240;2022-10-17T11:46:26;3.63;;;2.67;;
15820;SDS011;8011;51.650;7.240;2022-10-17T11:49:09;2.93;;;2.20;;
15820;SDS011;8011;51.650;7.240;2022-10-17T11:51:44;6.43;;;3.00;;
15820;SDS011;8011;51.650;7.240;2022-10-17T11:54:18;6.80;;;2.80;;
15820;SDS011;8011;51.650;7.240;2022-10-17T11:56:51;5.20;;;2.70;;
15820;SDS011;8011;51.650;7.240;2022-10-17T12:05:27;6.63;;;3.17;;
15820;SDS011;8011;51.650;7.240;2022-10-17T12:13:53;3.63;;;3.00;;
15820;SDS011;8011;51.650;7.240;2022-10-17T12:19:32;5.27;;;3.17;;
15820;SDS011;8011;51.650;7.240;2022-10-17T12:21:55;4.60;;;2.73;;
15820;SDS011;8011;51.650;7.240;2022-10-17T12:24:28;5.97;;;3.30;;
15820;SDS011;8011;51.650;7.240;2022-10-17T12:26:55;7.90;;;3.10;;
15820;SDS011;8011;51.650;7.240;2022-10-17T12:29:25;4.60;;;2.90;;
15820;SDS011;8011;51.650;7.240;2022-10-17T12:31:53;4.17;;;2.67;;
15820;SDS011;8011;51.650;7.240;2022-10-17T12:34:33;3.60;;;3.00;;
15820;SDS011;8011;51.650;7.240;2022-10-17T12:36:59;7.13;;;2.80;;
15820;SDS011;8011;51.650;7.240;2022-10-17T12:41:52;4.17;;;3.17;;
15820;SDS011;8011;51.650;7.240;2022-10-17T12:46:49;5.27;;;3.30;;
15820;SDS011;8011;51.650;7.240;2022-10-17T13:00:19;7.77;;;3.33;;
15820;SDS011;8011;51.650;7.240;2022-10-17T13:02:50;5.77;;;3.30;;
15820;SDS011;8011;51.650;7.240;2022-10-17T13:05:53;8.13;;;3.50;;
15820;SDS011;8011;51.650;7.240;2022-10-17T13:08:21;7.67;;;3.60;;
15820;SDS011;8011;51.650;7.240;2022-10-17T13:10:54;5.00;;;3.47;;
15820;SDS011;8011;51.650;7.240;2022-10-17T13:13:37;4.87;;;3.10;;
15820;SDS011;8011;51.650;7.240;2022-10-17T13:16:08;6.53;;;3.70;;
15820;SDS011;8011;51.650;7.240;2022-10-17T13:18:51;6.33;;;3.87;;
15820;SDS011;8011;51.650;7.240;2022-10-17T13:21:17;4.93;;;3.50;;
15820;SDS011;8011;51.650;7.240;2022-10-17T13:23:44;6.67;;;3.97;;
15820;SDS011;8011;51.650;7.240;2022-10-17T13:26:15;7.50;;;4.40;;
15820;SDS011;8011;51.650;7.240;2022-10-17T13:28:59;6.67;;;3.63;;
15820;SDS011;8011;51.650;7.240;2022-10-17T13:31:37;9.57;;;4.23;;
15820;SDS011;8011;51.650;7.240;2022-10-17T13:34:12;6.00;;;3.97;;
15820;SDS011;8011;51.650;7.240;2022-10-17T13:36:44;5.40;;;3.63;;
15820;SDS011;8011;51.650;7.240;2022-10-17T13:39:13;4.00;;;3.60;;
15820;SDS011;8011;51.650;7.240;2022-10-17T13:41:42;7.77;;;4.60;;
15820;SDS011;8011;51.650;7.240;2022-10-17T13:44:27;7.40;;;4.50;;
15820;SDS011;8011;51.650;7.240;2022-10-17T13:46:57;10.27;;;5.23;;
15820;SDS011;8011;51.650;7.240;2022-10-17T13:49:35;5.77;;;4.33;;
15820;SDS011;8011;51.650;7.240;2022-10-17T13:52:05;4.80;;;4.17;;
15820;SDS011;8011;51.650;7.240;2022-10-17T13:54:42;6.50;;;4.97;;
15820;SDS011;8011;51.650;7.240;2022-10-17T13:57:17;5.33;;;4.57;;
15820;SDS011;8011;51.650;7.240;2022-10-17T13:59:54;5.73;;;5.13;;
15820;SDS011;8011;51.650;7.240;2022-10-17T14:02:26;8.07;;;4.80;;
15820;SDS011;8011;51.650;7.240;2022-10-17T14:05:09;7.07;;;4.63;;
15820;SDS011;8011;51.650;7.240;2022-10-17T14:07:41;7.57;;;5.03;;
15820;SDS011;8011;51.650;7.240;2022-10-17T14:10:23;6.17;;;4.60;;
15820;SDS011;8011;51.650;7.240;2022-10-17T14:12:51;7.60;;;5.03;;
15820;SDS011;8011;51.650;7.240;2022-10-17T14:15:18;11.13;;;6.37;;
15820;SDS011;8011;51.650;7.240;2022-10-17T14:17:45;10.87;;;6.77;;
15820;SDS011;8011;51.650;7.240;2022-10-17T14:20:25;7.27;;;5.10;;
15820;SDS011;8011;51.650;7.240;2022-10-17T14:22:53;6.37;;;4.33;;
15820;SDS011;8011;51.650;7.240;2022-10-17T14:28:00;8.70;;;4.60;;
15820;SDS011;8011;51.650;7.240;2022-10-17T14:30:36;8.97;;;4.87;;
15820;SDS011;8011;51.650;7.240;2022-10-17T14:33:05;6.70;;;4.57;;
15820;SDS011;8011;51.650;7.240;2022-10-17T14:35:33;7.27;;;4.70;;
15820;SDS011;8011;51.650;7.240;2022-10-17T14:38:00;7.07;;;4.70;;
15820;SDS011;8011;51.650;7.240;2022-10-17T14:40:29;8.77;;;6.03;;
15820;SDS011;8011;51.650;7.240;2022-10-17T14:42:57;5.53;;;4.30;;
15820;SDS011;8011;51.650;7.240;2022-10-17T14:45:35;5.30;;;4.07;;
15820;SDS011;8011;51.650;7.240;2022-10-17T14:48:05;7.60;;;3.73;;
15820;SDS011;8011;51.650;7.240;2022-10-17T14:50:35;5.03;;;3.93;;
15820;SDS011;8011;51.650;7.240;2022-10-17T14:55:37;4.13;;;3.30;;
15820;SDS011;8011;51.650;7.240;2022-10-17T15:01:02;6.63;;;3.67;;
15820;SDS011;8011;51.650;7.240;2022-10-17T15:03:27;4.47;;;3.70;;
15820;SDS011;8011;51.650;7.240;2022-10-17T15:05:53;6.03;;;3.50;;
15820;SDS011;8011;51.650;7.240;2022-10-17T15:08:20;5.23;;;3.70;;
15820;SDS011;8011;51.650;7.240;2022-10-17T15:10:47;6.77;;;3.67;;
15820;SDS011;8011;51.650;7.240;2022-10-17T15:13:14;3.63;;;3.00;;
15820;SDS011;8011;51.650;7.240;2022-10-17T15:15:40;5.87;;;3.50;;
15820;SDS011;8011;51.650;7.240;2022-10-17T15:18:08;5.57;;;3.73;;
15820;SDS011;8011;51.650;7.240;2022-10-17T15:20:35;8.50;;;3.80;;
15820;SDS011;8011;51.650;7.240;2022-10-17T15:23:02;3.53;;;3.00;;
15820;SDS011;8011;51.650;7.240;2022-10-17T15:25:28;8.93;;;3.50;;
15820;SDS011;8011;51.650;7.240;2022-10-17T15:27:55;5.83;;;3.37;;
15820;SDS011;8011;51.650;7.240;2022-10-17T15:30:22;8.67;;;3.70;;
15820;SDS011;8011;51.650;7.240;2022-10-17T15:32:51;5.60;;;3.43;;
15820;SDS011;8011;51.650;7.240;2022-10-17T15:35:17;8.60;;;3.60;;
15820;SDS011;8011;51.650;7.240;2022-10-17T15:37:44;4.87;;;3.87;;
15820;SDS011;8011;51.650;7.240;2022-10-17T15:40:21;5.37;;;3.60;;
15820;SDS011;8011;51.650;7.240;2022-10-17T15:42:48;6.80;;;3.70;;
15820;SDS011;8011;51.650;7.240;2022-10-17T15:45:15;7.30;;;3.93;;
15820;SDS011;8011;51.650;7.240;2022-10-17T15:47:43;7.57;;;4.53;;
15820;SDS011;8011;51.650;7.240;2022-10-17T15:50:14;5.70;;;4.67;;
15820;SDS011;8011;51.650;7.240;2022-10-17T15:52:41;7.67;;;4.27;;
15820;SDS011;8011;51.650;7.240;2022-10-17T15:55:07;8.83;;;4.40;;
15820;SDS011;8011;51.650;7.240;2022-10-17T15:57:38;7.23;;;4.27;;
15820;SDS011;8011;51.650;7.240;2022-10-17T16:00:10;6.43;;;4.40;;
15820;SDS011;8011;51.650;7.240;2022-10-17T16:02:41;6.83;;;3.73;;
15820;SDS011;8011;51.650;7.240;2022-10-17T16:05:18;6.50;;;4.23;;
15820;SDS011;8011;51.650;7.240;2022-10-17T16:07:49;5.13;;;3.60;;
15820;SDS011;8011;51.650;7.240;2022-10-17T16:10:16;8.13;;;3.70;;
15820;SDS011;8011;51.650;7.240;2022-10-17T16:12:42;6.03;;;3.60;;
15820;SDS011;8011;51.650;7.240;2022-10-17T16:15:12;4.97;;;3.83;;
15820;SDS011;8011;51.650;7.240;2022-10-17T16:17:41;4.93;;;3.37;;
15820;SDS011;8011;51.650;7.240;2022-10-17T16:20:08;5.57;;;3.70;;
15820;SDS011;8011;51.650;7.240;2022-10-17T16:22:34;4.67;;;3.43;;
15820;SDS011;8011;51.650;7.240;2022-10-17T16:25:02;4.10;;;3.70;;
15820;SDS011;8011;51.650;7.240;2022-10-17T16:27:35;6.20;;;3.93;;
15820;SDS011;8011;51.650;7.240;2022-10-17T16:30:02;5.23;;;3.77;;
15820;SDS011;8011;51.650;7.240;2022-10-17T16:32:30;7.47;;;4.20;;
15820;SDS011;8011;51.650;7.240;2022-10-17T16:34:55;7.20;;;4.30;;
15820;SDS011;8011;51.650;7.240;2022-10-17T16:37:21;4.73;;;3.83;;
15820;SDS011;8011;51.650;7.240;2022-10-17T16:39:47;5.03;;;4.30;;
15820;SDS011;8011;51.650;7.240;2022-10-17T16:42:16;6.00;;;4.20;;
15820;SDS011;8011;51.650;7.240;2022-10-17T16:44:42;5.73;;;3.93;;
15820;SDS011;8011;51.650;7.240;2022-10-17T16:47:08;5.33;;;4.83;;
15820;SDS011;8011;51.650;7.240;2022-10-17T16:49:35;7.93;;;4.40;;
15820;SDS011;8011;51.650;7.240;2022-10-17T16:52:01;5.47;;;4.30;;
15820;SDS011;8011;51.650;7.240;2022-10-17T16:54:27;5.70;;;4.03;;
15820;SDS011;8011;51.650;7.240;2022-10-17T16:56:53;5.77;;;4.30;;
15820;SDS011;8011;51.650;7.240;2022-10-17T16:59:21;6.20;;;4.37;;
15820;SDS011;8011;51.650;7.240;2022-10-17T17:01:48;6.93;;;4.63;;
15820;SDS011;8011;51.650;7.240;2022-10-17T17:04:13;4.63;;;4.23;;
15820;SDS011;8011;51.650;7.240;2022-10-17T17:06:39;6.83;;;5.03;;
15820;SDS011;8011;51.650;7.240;2022-10-17T17:09:05;8.97;;;5.87;;
15820;SDS011;8011;51.650;7.240;2022-10-17T17:11:32;9.37;;;5.33;;
15820;SDS011;8011;51.650;7.240;2022-10-17T17:13:58;7.30;;;6.13;;
15820;SDS011;8011;51.650;7.240;2022-10-17T17:16:26;11.57;;;7.03;;
15820;SDS011;8011;51.650;7.240;2022-10-17T17:18:56;11.17;;;9.43;;
15820;SDS011;8011;51.650;7.240;2022-10-17T17:21:24;6.90;;;6.20;;
15820;SDS011;8011;51.650;7.240;2022-10-17T17:23:53;5.63;;;5.00;;
15820;SDS011;8011;51.650;7.240;2022-10-17T17:26:22;7.33;;;5.37;;
15820;SDS011;8011;51.650;7.240;2022-10-17T17:28:49;5.50;;;5.00;;
15820;SDS011;8011;51.650;7.240;2022-10-17T17:31:17;6.17;;;4.77;;
15820;SDS011;8011;51.650;7.240;2022-10-17T17:33:46;6.47;;;5.20;;
15820;SDS011;8011;51.650;7.240;2022-10-17T17:36:13;6.53;;;4.57;;
15820;SDS011;8011;51.650;7.240;2022-10-17T17:38:44;4.93;;;4.37;;
15820;SDS011;8011;51.650;7.240;2022-10-17T17:41:14;5.73;;;5.07;;
15820;SDS011;8011;51.650;7.240;2022-10-17T17:43:41;6.30;;;5.50;;
15820;SDS011;8011;51.650;7.240;2022-10-17T17:46:07;5.50;;;5.00;;
15820;SDS011;8011;51.650;7.240;2022-10-17T17:48:40;7.73;;;5.73;;
15820;SDS011;8011;51.650;7.240;2022-10-17T17:51:07;7.73;;;5.57;;
15820;SDS011;8011;51.650;7.240;2022-10-17T17:53:34;6.97;;;6.27;;
15820;SDS011;8011;51.650;7.240;2022-10-17T17:58:31;6.90;;;5.90;;
15820;SDS011;8011;51.650;7.240;2022-10-17T18:00:57;7.00;;;5.93;;
15820;SDS011;8011;51.650;7.240;2022-10-17T18:03:23;8.07;;;6.33;;
15820;SDS011;8011;51.650;7.240;2022-10-17T18:05:49;8.43;;;6.63;;
15820;SDS011;8011;51.650;7.240;2022-10-17T18:08:15;7.67;;;6.40;;
15820;SDS011;8011;51.650;7.240;2022-10-17T18:10:48;7.93;;;6.60;;
15820;SDS011;8011;51.650;7.240;2022-10-17T18:13:15;9.10;;;6.40;;
15820;SDS011;8011;51.650;7.240;2022-10-17T18:15:42;6.30;;;5.70;;
15820;SDS011;8011;51.650;7.240;2022-10-17T18:18:08;6.97;;;5.83;;
15820;SDS011;8011;51.650;7.240;2022-10-17T18:20:38;6.50;;;5.80;;
15820;SDS011;8011;51.650;7.240;2022-10-17T18:23:04;5.80;;;4.97;;
15820;SDS011;8011;51.650;7.240;2022-10-17T18:25:29;6.67;;;4.87;;
15820;SDS011;8011;51.650;7.240;2022-10-17T18:27:55;6.27;;;4.70;;
15820;SDS011;8011;51.650;7.240;2022-10-17T18:30:21;6.87;;;5.10;;
15820;SDS011;8011;51.650;7.240;2022-10-17T18:32:46;7.10;;;5.20;;
15820;SDS011;8011;51.650;7.240;2022-10-17T18:35:12;7.40;;;4.53;;
15820;SDS011;8011;51.650;7.240;2022-10-17T18:37:38;5.13;;;4.63;;
15820;SDS011;8011;51.650;7.240;2022-10-17T18:40:04;6.87;;;4.83;;
15820;SDS011;8011;51.650;7.240;2022-10-17T18:42:30;5.47;;;4.50;;
15820;SDS011;8011;51.650;7.240;2022-10-17T18:44:56;4.93;;;4.43;;
15820;SDS011;8011;51.650;7.240;2022-10-17T18:47:21;6.27;;;5.20;;
15820;SDS011;8011;51.650;7.240;2022-10-17T18:49:47;5.67;;;4.57;;
15820;SDS011;8011;51.650;7.240;2022-10-17T18:52:13;5.73;;;4.77;;
15820;SDS011;8011;51.650;7.240;2022-10-17T18:54:39;7.90;;;5.07;;
15820;SDS011;8011;51.650;7.240;2022-10-17T18:57:04;5.87;;;4.70;;
15820;SDS011;8011;51.650;7.240;2022-10-17T18:59:30;5.70;;;5.07;;
15820;SDS011;8011;51.650;7.240;2022-10-17T19:01:56;6.13;;;4.83;;
15820;SDS011;8011;51.650;7.240;2022-10-17T19:04:22;5.97;;;4.93;;
15820;SDS011;8011;51.650;7.240;2022-10-17T19:06:47;5.83;;;5.10;;
15820;SDS011;8011;51.650;7.240;2022-10-17T19:09:13;5.67;;;5.00;;
15820;SDS011;8011;51.650;7.240;2022-10-17T19:11:39;6.13;;;5.53;;
15820;SDS011;8011;51.650;7.240;2022-10-17T19:14:06;6.80;;;5.50;;
15820;SDS011;8011;51.650;7.240;2022-10-17T19:16:37;6.60;;;5.43;;
15820;SDS011;8011;51.650;7.240;2022-10-17T19:21:40;6.03;;;5.33;;
15820;SDS011;8011;51.650;7.240;2022-10-17T19:24:09;6.53;;;5.73;;
15820;SDS011;8011;51.650;7.240;2022-10-17T19:26:37;6.93;;;5.47;;
15820;SDS011;8011;51.650;7.240;2022-10-17T19:29:04;7.43;;;5.77;;
15820;SDS011;8011;51.650;7.240;2022-10-17T19:31:30;6.40;;;5.70;;
15820;SDS011;8011;51.650;7.240;2022-10-17T19:33:57;7.27;;;5.30;;
15820;SDS011;8011;51.650;7.240;2022-10-17T19:36:24;6.80;;;5.47;;
15820;SDS011;8011;51.650;7.240;2022-10-17T19:38:52;8.70;;;5.50;;